Time;durP1;ratioP1;P1;durP2;ratioP2;P2;SDS_P1;SDS_P2;PMS_P1;PMS_P2;Temp;Humidity;BMP_temperature;BMP_pressure;BME280_temperature;BME280_humidity;BME280_pressure;Samples;Min_cycle;Max_cycle;Signal;HPM_P1;HPM_P2
2023/03/07 00:01:30;;;;;;;28.35;14.32;;;;;;;6.58;55.19;96761.78;10216140;28;20469;-54
2023/03/07 00:06:29;;;;;;;40.88;24.67;;;;;;;6.99;55.94;96815.03;10208716;28;20471;-54
2023/03/07 00:11:28;;;;;;;30.30;18.38;;;;;;;7.30;56.02;96871.72;10211811;28;20259;-54
2023/03/07 00:16:27;;;;;;;27.33;14.60;;;;;;;6.79;56.87;96817.63;10211974;28;20025;-54
2023/03/07 00:21:30;;;;;;;25.13;15.75;;;;;;;6.83;57.54;96846.00;10212145;28;20357;-53
2023/03/07 00:26:29;;;;;;;23.27;13.32;;;;;;;6.90;57.57;96864.06;10224502;28;20504;-54
2023/03/07 00:31:28;;;;;;;23.42;14.55;;;;;;;6.77;57.93;96869.22;10216950;28;20050;-54
2023/03/07 00:36:27;;;;;;;26.08;13.80;;;;;;;6.51;58.57;96821.94;10225159;28;20536;-54
2023/03/07 00:41:27;;;;;;;;;;;;;;;6.66;59.84;96860.63;10215839;28;20062;-54
2023/03/07 00:46:26;;;;;;;;;;;;;;;6.46;60.08;96846.88;10220654;28;20844;-54
2023/03/07 00:51:25;;;;;;;18.65;12.07;;;;;;;6.39;60.59;96846.84;10214037;28;20001;-54
2023/03/07 00:56:25;;;;;;;19.20;11.02;;;;;;;6.36;60.82;96841.69;10212671;28;20030;-54
2023/03/07 01:01:24;;;;;;;20.05;11.18;;;;;;;5.93;60.12;96751.50;10216021;28;20070;-54
2023/03/07 01:06:26;;;;;;;16.55;9.75;;;;;;;6.59;58.97;96826.25;10207031;28;20144;-54
2023/03/07 01:11:27;;;;;;;13.73;8.85;;;;;;;6.89;58.92;96823.63;10213844;28;20138;-54
2023/03/07 01:16:32;;;;;;;15.25;8.50;;;;;;;7.24;57.94;96811.53;10221055;28;20105;-53
2023/03/07 01:21:34;;;;;;;13.90;8.18;;;;;;;7.39;56.95;96800.28;10217332;28;20587;-54
2023/03/07 01:26:33;;;;;;;16.05;8.23;;;;;;;7.68;56.36;96799.31;10211453;28;20073;-54
2023/03/07 01:31:33;;;;;;;14.13;8.68;;;;;;;7.74;55.92;96793.28;10219141;28;20110;-54
2023/03/07 01:36:34;;;;;;;14.13;8.30;;;;;;;7.92;55.04;96802.63;10209662;28;20065;-54
2023/03/07 01:41:35;;;;;;;14.90;8.82;;;;;;;7.91;54.82;96777.69;10206504;28;20085;-54
2023/03/07 01:46:44;;;;;;;16.65;9.27;;;;;;;8.04;54.24;96779.34;10222548;28;20081;-54
2023/03/07 01:51:48;;;;;;;15.30;9.33;;;;;;;8.17;54.35;96788.69;10216376;28;20170;-54
2023/03/07 01:56:47;;;;;;;21.38;9.55;;;;;;;8.14;54.14;96768.06;10216009;28;20588;-54
2023/03/07 02:01:47;;;;;;;14.20;8.77;;;;;;;8.35;53.60;96785.13;10227640;28;20133;-54
2023/03/07 02:06:46;;;;;;;13.25;8.25;;;;;;;8.25;53.68;96768.84;10218537;28;20117;-54
2023/03/07 02:11:46;;;;;;;14.05;8.45;;;;;;;8.23;53.35;96757.66;10213769;28;20117;-54
2023/03/07 02:16:45;;;;;;;13.80;8.57;;;;;;;8.40;53.50;96782.50;10213576;28;20113;-54
2023/03/07 02:22:05;;;;;;;15.45;8.13;;;;;;;8.24;53.41;96763.66;10220706;28;20015;-54
2023/03/07 02:27:04;;;;;;;13.82;8.48;;;;;;;8.44;53.41;96782.47;10203086;28;20063;-54
2023/03/07 02:32:04;;;;;;;14.70;9.25;;;;;;;8.46;53.57;96777.31;10201728;28;20117;-54
2023/03/07 02:37:09;;;;;;;13.60;8.90;;;;;;;8.44;53.64;96774.72;10213636;28;20132;-54
2023/03/07 02:42:30;;;;;;;13.20;8.95;;;;;;;8.42;53.50;96771.28;10241582;28;20057;-54
2023/03/07 02:47:29;;;;;;;13.50;8.30;;;;;;;8.45;53.08;96781.59;10239704;28;20062;-55
2023/03/07 02:52:29;;;;;;;12.80;7.80;;;;;;;8.44;53.05;96787.63;10240610;28;20066;-54
2023/03/07 02:57:28;;;;;;;11.90;7.80;;;;;;;8.56;52.69;96783.25;10240956;28;20565;-54
2023/03/07 03:02:27;;;;;;;14.68;8.25;;;;;;;8.60;52.82;96784.91;10241196;28;20117;-54
2023/03/07 03:07:26;;;;;;;12.57;7.65;;;;;;;8.47;52.65;96774.69;10241872;28;20547;-54
2023/03/07 03:12:25;;;;;;;13.65;7.80;;;;;;;8.50;52.40;96792.78;10241347;28;20572;-54
2023/03/07 03:17:24;;;;;;;13.10;7.53;;;;;;;8.54;52.42;96791.00;10241297;28;20121;-54
2023/03/07 03:22:23;;;;;;;12.73;7.38;;;;;;;8.56;52.54;96796.16;10242328;28;20058;-54
2023/03/07 03:27:21;;;;;;;11.73;6.95;;;;;;;8.55;52.30;96803.03;10249452;28;20436;-54
2023/03/07 03:32:21;;;;;;;12.68;7.57;;;;;;;8.51;52.04;96802.22;10250016;28;20138;-54
2023/03/07 03:37:19;;;;;;;;;;;;;;;8.44;52.50;96805.75;10235291;28;20142;-54
2023/03/07 03:42:19;;;;;;;20.77;12.15;;;;;;;8.42;52.71;96799.72;10209882;28;19957;-54
2023/03/07 03:47:18;;;;;;;21.23;12.27;;;;;;;8.58;52.38;96813.38;10209368;28;20114;-54
2023/03/07 03:52:17;;;;;;;21.73;11.93;;;;;;;8.56;52.64;96820.28;10209082;28;20034;-54
2023/03/07 03:57:17;;;;;;;;;;;;;;;7.03;52.84;96587.19;10210000;28;20121;-54
2023/03/07 04:02:16;;;;;;;19.00;10.05;;;;;;;8.41;53.47;96816.13;10209345;28;19972;-54
2023/03/07 04:07:15;;;;;;;17.67;9.73;;;;;;;8.26;53.76;96806.72;10209098;28;20049;-54
2023/03/07 04:12:14;;;;;;;18.23;9.63;;;;;;;8.25;53.81;96822.25;10208549;28;20038;-54
2023/03/07 04:17:13;;;;;;;18.70;10.75;;;;;;;8.18;54.29;96828.34;10208415;28;20412;-54
2023/03/07 04:22:12;;;;;;;14.43;8.43;;;;;;;8.08;54.50;96820.66;10208753;28;20023;-54
2023/03/07 04:27:11;;;;;;;17.48;10.13;;;;;;;8.04;54.75;96818.09;10208063;28;20039;-54
2023/03/07 04:32:10;;;;;;;19.30;8.90;;;;;;;7.95;54.74;96821.56;10205429;28;20492;-54
2023/03/07 04:37:09;;;;;;;14.70;9.35;;;;;;;7.88;55.24;96823.31;10215593;28;20223;-54
2023/03/07 04:42:08;;;;;;;12.15;7.15;;;;;;;7.90;54.74;96818.16;10207330;28;20035;-54
2023/03/07 04:47:07;;;;;;;10.63;6.50;;;;;;;7.83;54.89;96808.75;10207229;28;20042;-54
2023/03/07 04:52:06;;;;;;;10.32;6.35;;;;;;;8.12;54.32;96836.97;10206320;28;20505;-54
2023/03/07 04:57:05;;;;;;;12.13;6.78;;;;;;;8.29;53.89;96842.03;10207277;28;20074;-54
2023/03/07 05:02:06;;;;;;;12.52;7.32;;;;;;;8.36;53.44;96833.34;10207164;28;20485;-54
2023/03/07 05:07:05;;;;;;;12.48;6.45;;;;;;;8.45;53.29;96838.47;10206923;28;20460;-54
2023/03/07 05:12:04;;;;;;;13.10;7.15;;;;;;;8.60;53.05;96842.69;10245942;28;20560;-54
2023/03/07 05:17:03;;;;;;;;;;;;;;;8.69;52.60;96852.06;10246306;28;20519;-54
2023/03/07 05:22:02;;;;;;;12.88;7.85;;;;;;;8.80;52.70;96855.44;10246402;28;20008;-54
2023/03/07 05:27:01;;;;;;;12.20;7.43;;;;;;;8.82;52.42;96864.03;10246350;28;20077;-54
2023/03/07 05:32:01;;;;;;;12.88;7.32;;;;;;;8.87;52.36;96864.84;10245925;28;20088;-54
2023/03/07 05:37:00;;;;;;;11.32;6.90;;;;;;;8.87;52.42;96857.09;10217870;28;20130;-54
2023/03/07 05:41:59;;;;;;;10.68;7.35;;;;;;;9.09;52.42;96854.31;10206238;28;20114;-54
2023/03/07 05:46:58;;;;;;;13.77;7.35;;;;;;;9.25;51.91;96853.28;10219706;28;20117;-54
2023/03/07 05:51:57;;;;;;;11.52;7.53;;;;;;;9.40;51.33;96861.81;10205863;28;20063;-54
2023/03/07 05:56:56;;;;;;;14.13;7.72;;;;;;;9.49;51.66;96867.75;10204363;28;20392;-54
2023/03/07 06:01:55;;;;;;;11.73;7.65;;;;;;;9.68;50.78;96873.59;10205883;28;20107;-54
2023/03/07 06:06:54;;;;;;;12.23;7.18;;;;;;;9.92;51.30;96863.78;10209729;28;20030;-54
2023/03/07 06:11:53;;;;;;;12.75;7.22;;;;;;;10.09;50.08;96867.00;10203637;28;20134;-54
2023/03/07 06:16:52;;;;;;;11.48;7.20;;;;;;;10.14;49.57;96847.09;10204978;28;20097;-54
2023/03/07 06:21:51;;;;;;;14.85;7.20;;;;;;;10.32;49.76;96851.13;10205053;28;20820;-54
2023/03/07 06:26:50;;;;;;;12.57;6.90;;;;;;;10.40;49.49;96857.09;10204925;28;20453;-53
2023/03/07 06:31:50;;;;;;;11.43;6.10;;;;;;;10.42;48.92;96836.28;10243527;28;20467;-53
2023/03/07 06:36:48;;;;;;;14.77;6.28;;;;;;;10.60;48.37;96824.78;10240251;28;20118;-53
2023/03/07 06:41:49;;;;;;;12.50;6.10;;;;;;;10.69;47.92;96803.03;10206634;28;20030;-53
2023/03/07 06:46:48;;;;;;;9.95;5.93;;;;;;;11.12;47.71;96847.28;10204570;28;20115;-54
2023/03/07 06:51:47;;;;;;;9.50;6.38;;;;;;;11.09;46.00;96847.34;10213219;28;20141;-54
2023/03/07 06:56:46;;;;;;;10.73;5.63;;;;;;;11.02;45.98;96859.56;10227067;28;20030;-54
2023/03/07 07:01:45;;;;;;;10.80;6.18;;;;;;;11.28;46.01;96853.06;10202962;28;20025;-54
2023/03/07 07:06:43;;;;;;;13.57;8.32;;;;;;;11.07;46.30;96861.25;10202100;28;20150;-54
2023/03/07 07:11:42;;;;;;;17.67;10.15;;;;;;;11.16;47.62;96855.88;10242544;28;20034;-54
2023/03/07 07:16:41;;;;;;;18.90;11.02;;;;;;;11.27;47.78;96851.38;10242023;28;20030;-54
2023/03/07 07:21:40;;;;;;;15.65;7.00;;;;;;;11.29;47.12;96857.41;10241555;28;20030;-54
2023/03/07 07:26:39;;;;;;;9.32;5.47;;;;;;;11.39;46.19;96837.28;10240514;28;20137;-54
2023/03/07 07:31:38;;;;;;;10.30;6.32;;;;;;;11.94;45.04;96856.13;10223594;28;20027;-54
2023/03/07 07:36:37;;;;;;;10.00;5.53;;;;;;;11.98;44.37;96857.78;10209693;28;20026;-54
2023/03/07 07:41:37;;;;;;;9.35;5.50;;;;;;;12.18;44.51;96850.41;10210784;28;20494;-54
2023/03/07 07:46:36;;;;;;;10.15;6.60;;;;;;;12.49;44.60;96870.56;10200658;28;20069;-54
2023/03/07 07:51:35;;;;;;;;;;;;;;;12.80;43.07;96849.00;10204109;28;20139;-54
2023/03/07 07:56:34;;;;;;;10.05;4.97;;;;;;;12.86;40.45;96854.06;10200491;28;20383;-54
2023/03/07 08:01:33;;;;;;;;;;;;;;;13.07;38.82;96858.75;10201715;28;20575;-54
2023/03/07 08:06:32;;;;;;;10.88;5.00;;;;;;;13.27;39.11;96854.75;10211576;28;19921;-54
2023/03/07 08:11:31;;;;;;;8.55;4.07;;;;;;;13.42;38.71;96856.97;10226124;28;20122;-54
2023/03/07 08:16:30;;;;;;;;;;;;;;;13.69;39.91;96862.34;10218267;28;20105;-54
2023/03/07 08:21:29;;;;;;;8.10;4.47;;;;;;;13.98;39.20;96864.13;10220273;28;20000;-54
2023/03/07 08:26:28;;;;;;;7.45;4.10;;;;;;;13.54;38.32;96726.34;10213587;28;20054;-54
2023/03/07 08:31:27;;;;;;;;;;;;;;;14.45;36.42;96851.41;10220548;28;20099;-54
2023/03/07 08:36:27;;;;;;;6.40;3.55;;;;;;;14.79;37.01;96853.84;10221033;28;20008;-55
2023/03/07 08:41:26;;;;;;;8.60;3.97;;;;;;;14.82;36.75;96858.97;10222931;28;21655;-54
2023/03/07 08:46:25;;;;;;;;;;;;;;;14.76;36.08;96848.75;10215020;28;20497;-55
2023/03/07 08:51:25;;;;;;;6.63;3.63;;;;;;;14.76;36.72;96806.97;10230798;28;19957;-55
2023/03/07 08:56:26;;;;;;;11.85;5.07;;;;;;;15.00;35.67;96802.66;10217410;28;20081;-55
2023/03/07 09:01:25;;;;;;;6.70;3.83;;;;;;;15.44;35.17;96841.25;10223347;28;20065;-55
2023/03/07 09:06:24;;;;;;;6.47;3.85;;;;;;;15.46;33.93;96845.50;10213884;28;20041;-54
2023/03/07 09:11:22;;;;;;;;;;;;;;;15.32;34.72;96841.66;10228979;28;20047;-55
2023/03/07 09:16:22;;;;;;;7.37;4.10;;;;;;;14.89;34.36;96843.13;10222053;28;19953;-55
2023/03/07 09:21:22;;;;;;;6.53;4.22;;;;;;;14.82;35.13;96821.56;10216987;28;20077;-55
2023/03/07 09:26:21;;;;;;;6.53;3.97;;;;;;;14.96;34.92;96832.41;10215360;28;20547;-55
2023/03/07 09:31:21;;;;;;;4.72;3.15;;;;;;;14.61;34.37;96825.69;10224651;28;20157;-54
2023/03/07 09:36:20;;;;;;;8.15;3.47;;;;;;;14.57;34.13;96800.59;10222148;28;20128;-55
2023/03/07 09:41:46;;;;;;;5.75;3.17;;;;;;;14.67;34.27;96799.38;10222011;28;20122;-55
2023/03/07 09:47:09;;;;;;;33.38;20.23;;;;;;;14.68;34.27;96797.63;10215046;28;20515;-55
2023/03/07 09:52:18;;;;;;;21.58;10.70;;;;;;;14.62;34.83;96762.97;10226101;28;20134;-55
2023/03/07 09:57:25;;;;;;;5.05;3.40;;;;;;;15.02;33.12;96797.41;10214261;28;20065;-54
2023/03/07 10:02:53;;;;;;;4.18;2.53;;;;;;;15.41;32.13;96784.69;10224978;28;20054;-54
2023/03/07 10:07:53;;;;;;;13.55;3.60;;;;;;;15.24;31.38;96782.66;10212363;28;20551;-54
2023/03/07 10:13:16;;;;;;;9.27;3.47;;;;;;;15.51;33.25;96774.75;10219632;28;20472;-54
2023/03/07 10:18:50;;;;;;;4.82;2.75;;;;;;;15.39;30.93;96764.75;10227581;28;20070;-54
2023/03/07 10:24:16;;;;;;;6.53;3.72;;;;;;;15.37;31.31;96756.09;10209552;28;20072;-54
2023/03/07 10:29:18;;;;;;;7.65;2.90;;;;;;;15.47;31.26;96752.25;10207256;28;20062;-54
2023/03/07 10:34:25;;;;;;;8.20;3.25;;;;;;;15.48;31.16;96753.94;10206421;28;20078;-54
2023/03/07 10:39:45;;;;;;;6.53;2.97;;;;;;;15.43;31.12;96745.41;10210864;28;20062;-54
2023/03/07 10:44:47;;;;;;;6.63;3.38;;;;;;;15.58;31.43;96741.41;10216007;28;20061;-54
2023/03/07 10:49:49;;;;;;;3.95;2.40;;;;;;;15.80;31.50;96731.00;10214372;28;20465;-54
2023/03/07 10:54:48;;;;;;;4.43;2.70;;;;;;;15.96;30.61;96723.41;10215793;28;20130;-54
2023/03/07 10:59:48;;;;;;;10.70;3.50;;;;;;;15.66;31.21;96669.56;10212736;28;20026;-54
2023/03/07 11:04:47;;;;;;;4.15;2.58;;;;;;;15.91;30.31;96697.44;10207756;28;20106;-54
2023/03/07 11:09:46;;;;;;;8.23;5.03;;;;;;;15.99;30.65;96708.44;10206883;28;20102;-54
2023/03/07 11:14:59;;;;;;;7.28;3.65;;;;;;;15.99;30.11;96695.34;10212837;28;20169;-54
2023/03/07 11:19:58;;;;;;;7.53;3.50;;;;;;;16.39;30.68;96696.34;10212378;28;20069;-54
2023/03/07 11:25:12;;;;;;;3.83;2.42;;;;;;;16.75;29.37;96676.53;10211116;28;20030;-54
2023/03/07 11:30:36;;;;;;;6.85;3.10;;;;;;;17.37;30.01;96683.44;10226097;28;20823;-56
2023/03/07 11:35:51;;;;;;;5.22;2.53;;;;;;;17.77;27.50;96673.75;10224286;28;20476;-56
2023/03/07 11:41:01;;;;;;;4.55;2.45;;;;;;;18.13;28.61;96663.28;10224200;28;20053;-56
2023/03/07 11:46:06;;;;;;;6.35;2.30;;;;;;;18.21;28.07;96649.78;10220723;28;20047;-56
2023/03/07 11:51:26;;;;;;;10.82;2.70;;;;;;;18.05;27.53;96615.53;10224998;28;20080;-56
2023/03/07 11:56:39;;;;;;;7.45;2.70;;;;;;;18.10;26.71;96646.81;10222899;28;20054;-56
2023/03/07 12:02:10;;;;;;;3.42;2.05;;;;;;;18.33;27.88;96640.44;10213116;28;20465;-56
2023/03/07 12:07:30;;;;;;;11.80;2.78;;;;;;;18.50;27.29;96644.84;10217224;28;20785;-56
2023/03/07 12:12:55;;;;;;;7.25;2.38;;;;;;;18.52;27.19;96629.84;10218512;28;20178;-56
2023/03/07 12:18:29;;;;;;;3.95;2.10;;;;;;;18.55;26.77;96625.31;10211101;28;20069;-56
2023/03/07 12:23:41;;;;;;;3.92;2.55;;;;;;;18.72;26.45;96615.72;10204397;28;20078;-56
2023/03/07 12:28:49;;;;;;;4.55;2.28;;;;;;;18.76;25.87;96619.88;10216058;28;20082;-56
2023/03/07 12:34:16;;;;;;;5.05;2.28;;;;;;;18.71;26.42;96624.53;10221046;28;20459;-56
2023/03/07 12:39:46;;;;;;;2.45;2.08;;;;;;;18.80;26.75;96624.91;10210248;28;20065;-56
2023/03/07 12:44:53;;;;;;;4.80;2.55;;;;;;;18.85;26.53;96606.25;10213245;28;20145;-56
2023/03/07 12:50:01;;;;;;;3.58;2.20;;;;;;;18.97;26.59;96610.00;10212389;28;20134;-56
2023/03/07 12:55:19;;;;;;;5.32;2.58;;;;;;;19.05;25.72;96607.84;10208069;28;20126;-56
2023/03/07 13:00:21;;;;;;;4.55;2.67;;;;;;;18.50;27.33;96595.78;10210296;28;20126;-56
2023/03/07 13:05:21;;;;;;;8.35;3.15;;;;;;;18.23;27.62;96600.66;10207692;28;20484;-56
2023/03/07 13:10:22;;;;;;;5.07;3.00;;;;;;;18.29;27.35;96587.22;10213349;28;20081;-56
2023/03/07 13:15:21;;;;;;;6.57;3.00;;;;;;;17.75;28.18;96596.84;10217465;28;20078;-56
2023/03/07 13:20:26;;;;;;;5.63;3.00;;;;;;;17.57;28.51;96601.22;10217088;28;20031;-55
2023/03/07 13:25:25;;;;;;;8.32;4.13;;;;;;;17.85;28.68;96598.16;10218123;28;20161;-56
2023/03/07 13:30:24;;;;;;;6.07;3.00;;;;;;;18.11;28.05;96590.78;10222902;28;20062;-56
2023/03/07 13:35:27;;;;;;;6.65;3.53;;;;;;;17.44;29.46;96592.22;10209815;28;20133;-56
2023/03/07 13:40:34;;;;;;;8.75;3.78;;;;;;;17.93;28.93;96574.16;10211715;28;20065;-56
2023/03/07 13:45:36;;;;;;;7.13;3.38;;;;;;;18.23;28.36;96571.78;10213459;28;20069;-56
2023/03/07 13:50:35;;;;;;;4.95;2.92;;;;;;;18.29;27.58;96575.84;10220493;28;20065;-56
2023/03/07 13:55:40;;;;;;;4.22;2.92;;;;;;;18.26;27.77;96566.34;10212989;28;20041;-56
2023/03/07 14:00:48;;;;;;;5.40;2.92;;;;;;;18.09;26.60;96564.59;10213330;28;20081;-56
2023/03/07 14:05:47;;;;;;;7.15;3.17;;;;;;;18.21;27.30;96562.28;10213843;28;20472;-56
2023/03/07 14:10:47;;;;;;;5.68;2.58;;;;;;;18.28;27.54;96575.00;10217478;28;20077;-56
2023/03/07 14:16:14;;;;;;;6.55;2.50;;;;;;;18.26;26.49;96565.50;10211434;28;20129;-56
2023/03/07 14:21:28;;;;;;;6.97;3.70;;;;;;;18.17;27.27;96567.69;10220062;28;20088;-56
2023/03/07 14:26:33;;;;;;;6.93;3.10;;;;;;;18.17;27.98;96564.19;10206780;28;20101;-56
2023/03/07 14:31:39;;;;;;;5.63;2.97;;;;;;;18.05;28.18;96565.66;10208090;28;20973;-55
2023/03/07 14:36:38;;;;;;;7.50;3.42;;;;;;;18.10;28.09;96584.66;10227722;28;20145;-55
2023/03/07 14:42:19;;;;;;;8.90;4.03;;;;;;;18.09;27.47;96577.72;10209998;28;20041;-55
2023/03/07 14:47:36;;;;;;;5.18;2.97;;;;;;;17.90;27.42;96585.66;10219128;28;20473;-55
2023/03/07 14:52:35;;;;;;;9.27;3.58;;;;;;;17.82;27.54;96560.69;10218335;28;20065;-55
2023/03/07 14:57:44;;;;;;;14.30;3.30;;;;;;;17.89;27.58;96562.94;10219968;28;20455;-55
2023/03/07 15:02:45;;;;;;;;;;;;;;;18.00;27.36;96579.94;10212343;28;20061;-55
2023/03/07 15:07:44;;;;;;;5.13;3.20;;;;;;;17.77;26.93;96581.91;10219318;28;19962;-55
2023/03/07 15:12:48;;;;;;;11.60;3.65;;;;;;;17.49;28.13;96580.56;10204314;28;20079;-55
2023/03/07 15:17:48;;;;;;;6.20;3.08;;;;;;;17.11;27.03;96590.25;10220756;28;20066;-56
2023/03/07 15:22:47;;;;;;;3.88;2.80;;;;;;;16.39;28.38;96478.19;10211814;28;20829;-56
2023/03/07 15:27:56;;;;;;;7.32;3.25;;;;;;;16.77;28.59;96583.88;10218832;28;20065;-55
2023/03/07 15:33:17;;;;;;;5.15;2.88;;;;;;;16.67;28.78;96590.44;10217495;28;20117;-55
2023/03/07 15:38:22;;;;;;;6.00;3.13;;;;;;;16.55;28.94;96588.34;10226323;28;20088;-56
2023/03/07 15:43:21;;;;;;;6.28;3.10;;;;;;;16.35;28.64;96587.47;10220537;28;20062;-56
2023/03/07 15:48:42;;;;;;;6.88;4.07;;;;;;;16.38;29.36;96589.94;10223151;28;20050;-55
2023/03/07 15:53:42;;;;;;;9.40;4.90;;;;;;;16.26;28.99;96588.69;10212215;28;20141;-55
2023/03/07 15:58:44;;;;;;;73.05;48.05;;;;;;;16.15;28.95;96597.91;10218432;28;20468;-56
2023/03/07 16:03:49;;;;;;;324.20;155.27;;;;;;;15.85;29.60;96611.31;10214787;28;20453;-56
2023/03/07 16:08:48;;;;;;;212.98;91.90;;;;;;;15.80;30.23;96608.06;10217788;28;20059;-56
2023/03/07 16:13:47;;;;;;;25.08;13.30;;;;;;;15.74;30.48;96613.47;10210636;28;20141;-55
2023/03/07 16:18:47;;;;;;;28.83;15.55;;;;;;;15.59;30.94;96623.66;10213325;28;20066;-56
2023/03/07 16:23:46;;;;;;;27.05;18.40;;;;;;;15.48;31.42;96636.28;10210391;28;20058;-53
2023/03/07 16:28:45;;;;;;;17.70;10.85;;;;;;;15.18;32.12;96631.31;10213312;28;20456;-56
2023/03/07 16:33:45;;;;;;;;;;;;;;;15.06;32.45;96643.97;10213521;28;20109;-54
2023/03/07 16:38:45;;;;;;;15.02;9.95;;;;;;;14.96;32.88;96640.84;10223395;28;20731;-53
2023/03/07 16:43:45;;;;;;;23.35;13.27;;;;;;;14.72;32.77;96645.19;10213649;28;20066;-53
2023/03/07 16:48:45;;;;;;;25.00;12.35;;;;;;;14.63;33.21;96641.13;10222422;28;20488;-53
2023/03/07 16:53:45;;;;;;;32.60;16.75;;;;;;;14.47;33.33;96655.59;10212133;28;20495;-54
2023/03/07 16:58:45;;;;;;;84.38;55.63;;;;;;;14.38;33.98;96644.59;10224722;28;20125;-55
2023/03/07 17:03:43;;;;;;;;;;;;;;;14.36;34.26;96662.06;10221935;28;20656;-54
2023/03/07 17:08:44;;;;;;;29.63;19.17;;;;;;;14.22;34.21;96668.59;10219824;28;20159;-54
2023/03/07 17:13:43;;;;;;;28.02;17.20;;;;;;;13.88;34.83;96639.25;10205088;28;20114;-58
2023/03/07 17:18:42;;;;;;;40.00;25.63;;;;;;;13.96;35.13;96679.00;10220159;28;20113;-55
2023/03/07 17:23:43;;;;;;;36.45;21.58;;;;;;;13.82;35.80;96669.91;10209991;28;20467;-56
2023/03/07 17:28:43;;;;;;;26.33;18.63;;;;;;;13.44;36.34;96618.00;10224527;28;20078;-53
2023/03/07 17:33:42;;;;;;;23.45;17.15;;;;;;;13.56;36.12;96669.81;10213393;28;20077;-53
2023/03/07 17:38:40;;;;;;;;;;;;;;;13.49;35.91;96681.28;10219556;28;20475;-54
2023/03/07 17:43:39;;;;;;;19.08;13.93;;;;;;;13.45;35.75;96677.06;10214482;28;19918;-54
2023/03/07 17:48:38;;;;;;;19.75;11.43;;;;;;;13.34;35.79;96690.41;10207283;28;20507;-54
2023/03/07 17:53:37;;;;;;;;;;;;;;;13.28;37.02;96689.72;10210946;28;20072;-54
2023/03/07 17:58:39;;;;;;;67.22;39.72;;;;;;;13.04;38.42;96692.13;10205224;28;19914;-54
2023/03/07 18:03:38;;;;;;;60.58;37.60;;;;;;;12.79;39.12;96698.88;10204368;28;20097;-54
2023/03/07 18:08:37;;;;;;;;;;;;;;;12.71;39.18;96701.72;10201825;28;20145;-54
2023/03/07 18:13:37;;;;;;;50.55;32.90;;;;;;;12.28;39.44;96643.84;10210343;28;19961;-54
2023/03/07 18:18:38;;;;;;;60.25;36.08;;;;;;;12.62;39.83;96705.41;10203360;28;20106;-54
2023/03/07 18:23:38;;;;;;;61.95;32.88;;;;;;;12.62;39.55;96704.56;10225481;28;20051;-54
2023/03/07 18:28:39;;;;;;;65.97;41.28;;;;;;;12.55;40.06;96713.41;10203588;28;20070;-53
2023/03/07 18:33:39;;;;;;;85.05;48.35;;;;;;;12.41;41.30;96727.59;10206760;28;20089;-53
2023/03/07 18:38:38;;;;;;;78.90;44.53;;;;;;;12.35;41.15;96730.38;10204384;28;20058;-54
2023/03/07 18:43:38;;;;;;;;;;;;;;;12.35;41.06;96724.34;10210547;28;20041;-54
2023/03/07 18:48:37;;;;;;;65.27;37.30;;;;;;;12.32;40.92;96727.00;10213879;28;20037;-54
2023/03/07 18:53:38;;;;;;;74.15;45.20;;;;;;;12.26;41.95;96727.97;10216753;28;20119;-54
2023/03/07 18:58:37;;;;;;;74.00;44.58;;;;;;;11.88;41.91;96690.75;10209018;28;20636;-54
2023/03/07 19:03:36;;;;;;;65.93;42.90;;;;;;;12.04;42.97;96736.28;10209339;28;20085;-54
2023/03/07 19:08:35;;;;;;;79.10;50.65;;;;;;;11.75;43.26;96710.09;10211323;28;20061;-54
2023/03/07 19:13:35;;;;;;;;;;;;;;;11.81;44.15;96734.22;10208459;28;20113;-54
2023/03/07 19:18:35;;;;;;;98.17;67.27;;;;;;;11.68;44.07;96720.59;10208193;28;20005;-54
2023/03/07 19:23:34;;;;;;;92.53;66.10;;;;;;;11.28;44.52;96693.78;10207936;28;20093;-54
2023/03/07 19:28:33;;;;;;;;;;;;;;;11.51;44.65;96753.91;10200541;28;20054;-54
2023/03/07 19:33:32;;;;;;;80.57;54.90;;;;;;;11.27;46.05;96744.00;10207304;28;20044;-55
2023/03/07 19:38:31;;;;;;;82.30;59.50;;;;;;;11.12;46.28;96748.63;10176620;28;20335;-55
2023/03/07 19:43:30;;;;;;;85.60;53.75;;;;;;;11.03;46.52;96747.06;10210367;28;20038;-54
2023/03/07 19:48:29;;;;;;;62.80;42.22;;;;;;;10.80;46.02;96736.22;10200889;28;20066;-54
2023/03/07 19:53:28;;;;;;;59.00;36.90;;;;;;;10.69;46.44;96739.00;10200174;28;20110;-54
2023/03/07 19:58:27;;;;;;;53.33;34.55;;;;;;;10.68;46.58;96767.56;10201322;28;20062;-54
2023/03/07 20:03:26;;;;;;;41.47;28.65;;;;;;;10.55;46.60;96766.94;10213304;28;20033;-54
2023/03/07 20:08:25;;;;;;;38.65;23.67;;;;;;;10.42;46.33;96758.47;10206425;28;20041;-54
2023/03/07 20:13:24;;;;;;;54.97;34.72;;;;;;;10.24;47.21;96753.59;10209960;28;20049;-54
2023/03/07 20:18:23;;;;;;;67.63;41.72;;;;;;;10.16;47.81;96751.13;10209549;28;20041;-54
2023/03/07 20:23:22;;;;;;;73.75;48.45;;;;;;;9.94;48.21;96760.97;10212917;28;20046;-54
2023/03/07 20:28:21;;;;;;;71.68;43.65;;;;;;;9.71;49.25;96759.53;10204946;28;20161;-54
2023/03/07 20:33:20;;;;;;;66.65;43.95;;;;;;;9.69;48.81;96763.88;10212527;28;20487;-54
2023/03/07 20:38:19;;;;;;;110.18;69.40;;;;;;;9.50;50.25;96765.00;10209317;28;20564;-54
2023/03/07 20:43:18;;;;;;;115.07;73.72;;;;;;;9.35;50.18;96763.47;10211846;28;20109;-54
2023/03/07 20:48:17;;;;;;;101.65;66.25;;;;;;;9.24;50.75;96773.06;10208183;28;20049;-54
2023/03/07 20:53:16;;;;;;;99.93;62.13;;;;;;;9.13;51.11;96788.72;10219430;28;20506;-54
2023/03/07 20:58:15;;;;;;;102.47;64.68;;;;;;;8.77;52.48;96784.78;10208087;28;20483;-54
2023/03/07 21:03:14;;;;;;;92.47;58.83;;;;;;;8.79;52.55;96783.88;10209341;28;20109;-53
2023/03/07 21:08:13;;;;;;;83.15;52.50;;;;;;;8.60;52.43;96764.22;10209002;28;20133;-53
2023/03/07 21:13:12;;;;;;;82.70;50.08;;;;;;;8.64;52.50;96786.59;10207291;28;20133;-53
2023/03/07 21:18:11;;;;;;;73.57;43.40;;;;;;;8.41;52.31;96754.06;10206495;28;20049;-55
2023/03/07 21:23:10;;;;;;;70.88;42.92;;;;;;;8.53;52.87;96778.97;10219187;28;20030;-55
2023/03/07 21:28:10;;;;;;;64.03;40.45;;;;;;;8.34;52.70;96746.34;10210261;28;20113;-55
2023/03/07 21:33:09;;;;;;;71.95;44.40;;;;;;;8.37;53.01;96783.38;10206076;28;20057;-54
2023/03/07 21:38:08;;;;;;;83.53;54.15;;;;;;;8.22;54.76;96778.31;10213437;28;20078;-54
2023/03/07 21:43:07;;;;;;;82.50;51.58;;;;;;;8.15;54.17;96782.69;10218932;28;20109;-53
2023/03/07 21:48:06;;;;;;;62.13;41.42;;;;;;;7.94;54.30;96783.69;10210748;28;20043;-54
2023/03/07 21:53:05;;;;;;;79.50;49.55;;;;;;;7.97;53.74;96786.25;10218735;28;20066;-53
2023/03/07 21:58:06;;;;;;;78.20;49.45;;;;;;;7.89;54.28;96780.28;10210323;28;20026;-53
2023/03/07 22:03:06;;;;;;;104.53;60.25;;;;;;;7.85;55.11;96786.34;10202950;28;20082;-54
2023/03/07 22:08:05;;;;;;;94.22;59.30;;;;;;;7.44;55.00;96731.47;10211522;28;20140;-53
2023/03/07 22:13:04;;;;;;;89.38;50.67;;;;;;;7.64;55.73;96783.00;10203441;28;20089;-53
2023/03/07 22:18:03;;;;;;;84.82;53.42;;;;;;;7.57;56.20;96780.44;10210551;28;20145;-53
2023/03/07 22:23:02;;;;;;;73.60;45.33;;;;;;;7.35;55.72;96756.44;10210425;28;20049;-53
2023/03/07 22:28:01;;;;;;;57.85;36.55;;;;;;;7.43;56.18;96785.69;10209478;28;20030;-53
2023/03/07 22:33:00;;;;;;;49.35;31.90;;;;;;;7.38;56.28;96793.41;10217205;28;20573;-53
2023/03/07 22:37:59;;;;;;;53.70;31.35;;;;;;;7.38;56.43;96779.63;10208302;28;20474;-54
2023/03/07 22:42:57;;;;;;;49.40;31.15;;;;;;;7.31;55.93;96796.00;10208933;28;20496;-53
2023/03/07 22:47:56;;;;;;;35.33;22.92;;;;;;;7.21;55.71;96793.44;10211804;28;20409;-53
2023/03/07 22:52:55;;;;;;;40.40;26.67;;;;;;;7.06;56.18;96801.25;10216233;28;20076;-54
2023/03/07 22:57:54;;;;;;;63.83;41.03;;;;;;;7.02;57.43;96802.97;10208147;28;20069;-53
2023/03/07 23:02:53;;;;;;;62.03;40.67;;;;;;;6.91;58.95;96811.59;10203530;28;20038;-53
2023/03/07 23:07:52;;;;;;;51.50;34.20;;;;;;;6.63;58.79;96800.47;10216026;28;20117;-53
2023/03/07 23:12:51;;;;;;;58.60;37.58;;;;;;;6.65;59.29;96816.78;10220731;28;20030;-54
2023/03/07 23:17:50;;;;;;;60.50;35.58;;;;;;;6.57;59.38;96820.22;10213581;28;20053;-54
2023/03/07 23:22:49;;;;;;;51.78;32.30;;;;;;;6.48;59.78;96822.81;10211772;28;20572;-53